UAL79 KBOI-EFSO
Flight info
| Callsign | UAL79 |
|---|---|
| Flight time | N/A |
| Altitude | 35000 |
| Route | GOWEN4 BOI J7 GTF/N0481F340 J13 CFNGJ/N0477F360 J516 YQL/N0479F350 Q896 MEETO Q959 YVC J540 LITGO DCT 60N098W/N0489F370 65N093W 69N085W 73N074W/M083F370 76N057W 77N035W/M083F390 76N012W/N0492F390 74N006E DCT KOMUX DCT GOMAV DCT AMUBA DCT |
| Aircraft | B77L/H-SDE1E2E3FGHIJ2J3J4J5M1RWXY/LB1D1 |
Departure
| Time | 2026-05-07 05:35 |
|---|---|
| Airport | Boise Air Terminal/Gowen Field (KBOI) |
Arrival
| Time | N/A |
|---|---|
| Airport | Sodankyla Airport (EFSO) |
| Time | Latitude | Longitude | Altitude | Speed | Heading |
|---|---|---|---|---|---|
| 2026-05-07 05:08 | 43.56787 | -116.21961 | 2854 ft | 0 kts | 221° |
| 2026-05-07 05:24 | 43.56797 | -116.21943 | 2862 ft | 3 kts | 258° |
| 2026-05-07 05:25 | 43.56803 | -116.21918 | 2860 ft | 3 kts | 223° |
| 2026-05-07 05:25 | 43.56820 | -116.21905 | 2858 ft | 3 kts | 178° |
| 2026-05-07 05:25 | 43.56822 | -116.21904 | 2859 ft | 0 kts | 173° |
| 2026-05-07 05:25 | 43.56820 | -116.21903 | 2858 ft | 2 kts | 167° |
| 2026-05-07 05:26 | 43.56810 | -116.21848 | 2863 ft | 7 kts | 99° |
| 2026-05-07 05:26 | 43.56809 | -116.21832 | 2858 ft | 0 kts | 99° |
| 2026-05-07 05:27 | 43.56807 | -116.21821 | 2860 ft | 4 kts | 104° |
| 2026-05-07 05:27 | 43.56775 | -116.21768 | 2859 ft | 8 kts | 151° |
| 2026-05-07 05:28 | 43.56718 | -116.21753 | 2860 ft | 9 kts | 172° |
| 2026-05-07 05:28 | 43.56624 | -116.21741 | 2856 ft | 20 kts | 175° |
| 2026-05-07 05:28 | 43.56518 | -116.21741 | 2855 ft | 12 kts | 209° |
| 2026-05-07 05:28 | 43.56514 | -116.21847 | 2856 ft | 13 kts | 290° |
| 2026-05-07 05:29 | 43.56550 | -116.21960 | 2855 ft | 13 kts | 294° |
| 2026-05-07 05:29 | 43.56587 | -116.22070 | 2856 ft | 13 kts | 295° |
| 2026-05-07 05:29 | 43.56632 | -116.22197 | 2854 ft | 20 kts | 296° |
| 2026-05-07 05:29 | 43.56693 | -116.22370 | 2852 ft | 20 kts | 295° |
| 2026-05-07 05:30 | 43.56752 | -116.22543 | 2851 ft | 20 kts | 295° |
| 2026-05-07 05:30 | 43.56811 | -116.22718 | 2848 ft | 20 kts | 295° |
| 2026-05-07 05:30 | 43.56871 | -116.22892 | 2844 ft | 20 kts | 295° |
| 2026-05-07 05:30 | 43.56930 | -116.23067 | 2843 ft | 20 kts | 294° |
| 2026-05-07 05:31 | 43.56988 | -116.23246 | 2843 ft | 22 kts | 295° |
| 2026-05-07 05:31 | 43.57055 | -116.23432 | 2845 ft | 22 kts | 296° |
| 2026-05-07 05:31 | 43.57106 | -116.23592 | 2844 ft | 3 kts | 285° |
| 2026-05-07 05:32 | 43.57111 | -116.23638 | 2847 ft | 12 kts | 270° |
| 2026-05-07 05:32 | 43.57103 | -116.23762 | 2848 ft | 18 kts | 261° |
| 2026-05-07 05:32 | 43.57079 | -116.23968 | 2846 ft | 21 kts | 258° |
| 2026-05-07 05:33 | 43.57057 | -116.24088 | 2845 ft | 3 kts | 254° |
| 2026-05-07 05:33 | 43.57057 | -116.24090 | 2845 ft | 1 kts | 254° |
| 2026-05-07 05:33 | 43.57023 | -116.24179 | 2844 ft | 14 kts | 220° |
| 2026-05-07 05:33 | 43.56967 | -116.24143 | 2845 ft | 9 kts | 117° |
| 2026-05-07 05:34 | 43.56964 | -116.24135 | 2845 ft | 0 kts | 116° |
| 2026-05-07 05:34 | 43.56932 | -116.24043 | 2847 ft | 45 kts | 115° |
| 2026-05-07 05:34 | 43.56653 | -116.23225 | 2852 ft | 141 kts | 115° |
| 2026-05-07 05:34 | 43.56116 | -116.21648 | 2977 ft | 212 kts | 114° |
| 2026-05-07 05:35 | 43.55684 | -116.20424 | 3677 ft | 208 kts | 115° |
| 2026-05-07 05:35 | 43.55091 | -116.18674 | 4957 ft | 202 kts | 115° |
| 2026-05-07 05:35 | 43.54465 | -116.16815 | 5236 ft | 226 kts | 115° |
| 2026-05-07 05:35 | 43.53763 | -116.14723 | 5453 ft | 254 kts | 114° |
| 2026-05-07 05:36 | 43.53015 | -116.12487 | 6025 ft | 266 kts | 115° |
| 2026-05-07 05:36 | 43.52220 | -116.10121 | 6668 ft | 275 kts | 115° |
| 2026-05-07 05:36 | 43.51403 | -116.07691 | 7378 ft | 281 kts | 115° |
| 2026-05-07 05:36 | 43.50583 | -116.05250 | 8099 ft | 287 kts | 114° |
| 2026-05-07 05:37 | 43.49740 | -116.02739 | 8694 ft | 286 kts | 115° |
| 2026-05-07 05:37 | 43.48889 | -116.00211 | 9013 ft | 295 kts | 114° |
| 2026-05-07 05:37 | 43.48027 | -115.97640 | 8986 ft | 298 kts | 114° |
| 2026-05-07 05:37 | 43.47158 | -115.95052 | 8983 ft | 296 kts | 114° |
| 2026-05-07 05:38 | 43.46597 | -115.92381 | 8979 ft | 288 kts | 90° |
| 2026-05-07 05:38 | 43.46911 | -115.89686 | 8988 ft | 286 kts | 64° |
| 2026-05-07 05:38 | 43.47850 | -115.87267 | 8987 ft | 287 kts | 56° |
| 2026-05-07 05:38 | 43.48877 | -115.84907 | 8986 ft | 290 kts | 56° |
| 2026-05-07 05:39 | 43.50133 | -115.82809 | 8970 ft | 281 kts | 34° |
| 2026-05-07 05:39 | 43.51761 | -115.81371 | 9078 ft | 274 kts | 27° |
| 2026-05-07 05:39 | 43.53372 | -115.80068 | 9465 ft | 272 kts | 27° |
| 2026-05-07 05:39 | 43.55017 | -115.78679 | 9914 ft | 279 kts | 30° |
| 2026-05-07 05:40 | 43.56601 | -115.77129 | 10285 ft | 284 kts | 32° |
| 2026-05-07 05:40 | 43.58193 | -115.75508 | 10648 ft | 285 kts | 32° |
| 2026-05-07 05:40 | 43.59837 | -115.73826 | 10931 ft | 305 kts | 32° |
| 2026-05-07 05:40 | 43.61626 | -115.72025 | 11127 ft | 330 kts | 29° |
| 2026-05-07 05:41 | 43.63678 | -115.70377 | 11353 ft | 354 kts | 24° |
| 2026-05-07 05:41 | 43.65939 | -115.68730 | 11671 ft | 376 kts | 24° |
| 2026-05-07 05:41 | 43.68294 | -115.66987 | 12359 ft | 387 kts | 24° |
| 2026-05-07 05:41 | 43.70662 | -115.65223 | 13110 ft | 395 kts | 24° |
| 2026-05-07 05:42 | 43.73101 | -115.63375 | 13984 ft | 399 kts | 24° |
| 2026-05-07 05:42 | 43.75523 | -115.61522 | 14811 ft | 402 kts | 24° |
| 2026-05-07 05:42 | 43.77983 | -115.59617 | 15656 ft | 404 kts | 24° |
| 2026-05-07 05:42 | 43.80448 | -115.57687 | 15999 ft | 407 kts | 24° |
| 2026-05-07 05:43 | 43.82894 | -115.55774 | 15979 ft | 408 kts | 24° |
| 2026-05-07 05:43 | 43.85375 | -115.53836 | 15951 ft | 406 kts | 24° |
| 2026-05-07 05:43 | 43.87840 | -115.51899 | 15988 ft | 407 kts | 25° |
| 2026-05-07 05:43 | 43.90280 | -115.49948 | 16007 ft | 411 kts | 25° |
| 2026-05-07 05:44 | 43.92775 | -115.47965 | 15994 ft | 414 kts | 24° |
| 2026-05-07 05:44 | 43.95277 | -115.45989 | 16005 ft | 411 kts | 24° |
| 2026-05-07 05:44 | 43.97733 | -115.44046 | 16023 ft | 407 kts | 24° |
| 2026-05-07 05:44 | 44.00191 | -115.42096 | 16041 ft | 406 kts | 25° |
| 2026-05-07 05:45 | 44.02120 | -115.40562 | 16097 ft | 407 kts | 25° |
| 2026-05-07 05:45 | 44.04597 | -115.38599 | 16106 ft | 408 kts | 25° |
| 2026-05-07 05:45 | 44.07054 | -115.36708 | 16118 ft | 407 kts | 21° |
| 2026-05-07 05:45 | 44.09599 | -115.34967 | 16071 ft | 409 kts | 24° |
| 2026-05-07 05:46 | 44.11991 | -115.32809 | 16059 ft | 413 kts | 32° |
| 2026-05-07 05:46 | 44.14216 | -115.30270 | 16422 ft | 413 kts | 36° |
| 2026-05-07 05:46 | 44.16364 | -115.27526 | 16838 ft | 419 kts | 39° |
| 2026-05-07 05:46 | 44.18438 | -115.24728 | 17220 ft | 420 kts | 39° |
| 2026-05-07 05:47 | 44.20532 | -115.21841 | 17982 ft | 424 kts | 40° |
| 2026-05-07 05:47 | 44.22635 | -115.18925 | 18706 ft | 427 kts | 39° |
| 2026-05-07 05:47 | 44.24735 | -115.16020 | 19378 ft | 430 kts | 39° |
| 2026-05-07 05:47 | 44.26882 | -115.13067 | 19986 ft | 433 kts | 39° |
| 2026-05-07 05:48 | 44.29044 | -115.10100 | 20664 ft | 436 kts | 38° |
| 2026-05-07 05:48 | 44.31229 | -115.07108 | 21240 ft | 441 kts | 38° |